Time;durP1;ratioP1;P1;durP2;ratioP2;P2;SDS_P1;SDS_P2;PMS_P1;PMS_P2;Temp;Humidity;BMP_temperature;BMP_pressure;BME280_temperature;BME280_humidity;BME280_pressure;Samples;Min_cycle;Max_cycle;Signal;HPM_P1;HPM_P2
2023/06/03 00:00:09;;;;;;;8.38;2.85;;;;;;;;;;510488;28;1464;-71
2023/06/03 00:00:25;;;;;;;6.90;2.50;;;;;;;;;;507879;28;1510;-71
2023/06/03 00:00:41;;;;;;;6.33;2.40;;;;;;;;;;511034;28;1450;-71
2023/06/03 00:00:57;;;;;;;5.60;2.45;;;;;;;;;;510972;28;1107;-70
2023/06/03 00:01:12;;;;;;;6.20;2.50;;;;;;;;;;510059;28;1944;-72
2023/06/03 00:01:28;;;;;;;5.18;2.42;;;;;;;;;;510573;28;1376;-71
2023/06/03 00:01:43;;;;;;;5.03;2.33;;;;;;;;;;509695;28;1251;-71
2023/06/03 00:01:59;;;;;;;4.97;2.40;;;;;;;;;;509973;28;1099;-71
2023/06/03 00:02:15;;;;;;;5.63;2.50;;;;;;;;;;508848;28;1346;-72
2023/06/03 00:02:33;;;;;;;8.43;2.58;;;;;;;;;;510536;28;1462;-72
2023/06/03 00:02:52;;;;;;;8.07;2.60;;;;;;;;;;511234;28;961;-72
2023/06/03 00:03:11;;;;;;;6.32;2.60;;;;;;;;;;512890;28;1160;-72
2023/06/03 00:03:27;;;;;;;7.05;2.60;;;;;;;;;;512967;28;1124;-71
2023/06/03 00:03:44;;;;;;;7.00;2.60;;;;;;;;;;512727;28;1327;-71
2023/06/03 00:04:00;;;;;;;7.97;2.70;;;;;;;;;;512559;28;1574;-71
2023/06/03 00:04:18;;;;;;;6.78;2.50;;;;;;;;;;510419;28;1291;-71
2023/06/03 00:04:34;;;;;;;5.93;2.42;;;;;;;;;;509879;28;1611;-70
2023/06/03 00:04:49;;;;;;;6.95;2.45;;;;;;;;;;509745;28;1318;-71
2023/06/03 00:05:05;;;;;;;7.17;2.47;;;;;;;;;;509548;28;1775;-73
2023/06/03 00:05:21;;;;;;;5.07;2.20;;;;;;;;;;510614;28;1308;-71
2023/06/03 00:05:36;;;;;;;5.18;2.20;;;;;;;;;;511735;28;1251;-71
2023/06/03 00:05:52;;;;;;;7.10;2.47;;;;;;;;;;513268;28;1101;-71
2023/06/03 00:06:08;;;;;;;7.43;2.40;;;;;;;;;;512513;28;1414;-72
2023/06/03 00:06:24;;;;;;;6.60;2.50;;;;;;;;;;511873;28;1260;-71
2023/06/03 00:06:40;;;;;;;6.57;2.40;;;;;;;;;;513891;28;1416;-71
2023/06/03 00:06:59;;;;;;;6.20;2.40;;;;;;;;;;512210;28;1283;-71
2023/06/03 00:07:14;;;;;;;6.90;2.60;;;;;;;;;;514623;28;1326;-71
2023/06/03 00:07:30;;;;;;;6.93;2.50;;;;;;;;;;513741;28;1006;-72
2023/06/03 00:07:49;;;;;;;6.53;2.45;;;;;;;;;;514086;28;931;-71
2023/06/03 00:08:04;;;;;;;6.68;2.60;;;;;;;;;;511314;28;1469;-72
2023/06/03 00:08:20;;;;;;;6.90;2.53;;;;;;;;;;512895;28;1080;-71
2023/06/03 00:08:35;;;;;;;7.32;2.58;;;;;;;;;;514143;28;1474;-71
2023/06/03 00:08:53;;;;;;;6.20;2.50;;;;;;;;;;514240;28;1196;-71
2023/06/03 00:09:09;;;;;;;6.22;2.50;;;;;;;;;;513144;28;1355;-72
2023/06/03 00:09:27;;;;;;;6.00;2.45;;;;;;;;;;514088;28;1412;-71
2023/06/03 00:09:45;;;;;;;6.43;2.50;;;;;;;;;;512250;28;1499;-71
2023/06/03 00:10:01;;;;;;;6.65;2.50;;;;;;;;;;511790;28;1477;-71
2023/06/03 00:10:26;;;;;;;5.93;2.38;;;;;;;;;;510404;28;1511;-71
2023/06/03 00:10:41;;;;;;;7.75;2.50;;;;;;;;;;509355;28;1477;-71
2023/06/03 00:10:57;;;;;;;8.73;2.70;;;;;;;;;;515591;28;1097;-71
2023/06/03 00:11:13;;;;;;;6.68;2.55;;;;;;;;;;518946;28;1394;-71
2023/06/03 00:11:29;;;;;;;5.78;2.60;;;;;;;;;;519375;28;1333;-71
2023/06/03 00:11:44;;;;;;;6.20;2.60;;;;;;;;;;519324;28;1231;-71
2023/06/03 00:11:59;;;;;;;6.97;2.50;;;;;;;;;;519835;28;1220;-71
2023/06/03 00:12:15;;;;;;;7.40;2.60;;;;;;;;;;517415;28;1323;-71
2023/06/03 00:12:30;;;;;;;6.60;2.60;;;;;;;;;;517482;28;1185;-72
2023/06/03 00:12:45;;;;;;;6.80;2.70;;;;;;;;;;517382;28;1307;-72
2023/06/03 00:13:01;;;;;;;7.77;2.83;;;;;;;;;;516234;28;1156;-72
2023/06/03 00:13:16;;;;;;;7.57;2.80;;;;;;;;;;516039;28;1354;-71
2023/06/03 00:13:31;;;;;;;6.78;2.63;;;;;;;;;;514541;28;1398;-71
2023/06/03 00:13:47;;;;;;;5.30;2.40;;;;;;;;;;514556;28;1285;-72
2023/06/03 00:14:03;;;;;;;6.53;2.50;;;;;;;;;;517138;28;1051;-71
2023/06/03 00:14:18;;;;;;;7.10;2.60;;;;;;;;;;515869;28;1220;-71
2023/06/03 00:14:34;;;;;;;6.03;2.50;;;;;;;;;;514920;28;1353;-71
2023/06/03 00:14:49;;;;;;;6.57;2.57;;;;;;;;;;516584;28;1003;-71
2023/06/03 00:15:06;;;;;;;6.40;2.40;;;;;;;;;;513721;28;1149;-71
2023/06/03 00:15:22;;;;;;;5.43;2.38;;;;;;;;;;511831;28;1084;-71
2023/06/03 00:15:37;;;;;;;6.00;2.37;;;;;;;;;;510458;28;1446;-71
2023/06/03 00:15:52;;;;;;;6.05;2.30;;;;;;;;;;512367;28;1358;-71
2023/06/03 00:16:08;;;;;;;6.77;2.43;;;;;;;;;;511621;28;1164;-72
2023/06/03 00:16:26;;;;;;;7.45;2.60;;;;;;;;;;513732;28;1027;-71
2023/06/03 00:16:46;;;;;;;7.00;2.55;;;;;;;;;;513838;28;954;-71
2023/06/03 00:17:02;;;;;;;6.65;2.45;;;;;;;;;;511542;28;970;-70
2023/06/03 00:17:17;;;;;;;7.07;2.53;;;;;;;;;;511170;28;1218;-70
2023/06/03 00:17:33;;;;;;;6.35;2.53;;;;;;;;;;512057;28;1334;-72
2023/06/03 00:17:49;;;;;;;6.50;2.58;;;;;;;;;;511100;28;1259;-71
2023/06/03 00:18:06;;;;;;;7.55;2.65;;;;;;;;;;510366;28;1294;-71
2023/06/03 00:18:23;;;;;;;6.22;2.60;;;;;;;;;;510992;28;1150;-72
2023/06/03 00:18:39;;;;;;;5.68;2.30;;;;;;;;;;510602;28;1506;-71
2023/06/03 00:18:54;;;;;;;6.10;2.33;;;;;;;;;;511330;28;1057;-71
2023/06/03 00:19:14;;;;;;;6.43;2.40;;;;;;;;;;511308;28;1189;-71
2023/06/03 00:19:31;;;;;;;5.93;2.50;;;;;;;;;;512610;28;1346;-71
2023/06/03 00:19:48;;;;;;;6.75;2.58;;;;;;;;;;515127;28;1450;-71
2023/06/03 00:20:09;;;;;;;6.75;2.47;;;;;;;;;;514912;28;1095;-71
2023/06/03 00:20:25;;;;;;;6.18;2.33;;;;;;;;;;513023;28;1309;-71
2023/06/03 00:20:40;;;;;;;6.50;2.40;;;;;;;;;;511987;28;1231;-71
2023/06/03 00:20:56;;;;;;;6.30;2.40;;;;;;;;;;509837;28;1515;-71
2023/06/03 00:21:12;;;;;;;5.93;2.40;;;;;;;;;;508161;28;1977;-71
2023/06/03 00:21:29;;;;;;;6.95;2.47;;;;;;;;;;508303;28;1312;-71
2023/06/03 00:21:49;;;;;;;7.15;2.60;;;;;;;;;;508590;28;1424;-71
2023/06/03 00:22:04;;;;;;;6.45;2.45;;;;;;;;;;508592;28;1414;-70
2023/06/03 00:22:23;;;;;;;7.20;2.77;;;;;;;;;;507986;28;1516;-71
2023/06/03 00:22:40;;;;;;;6.80;2.75;;;;;;;;;;508298;28;1420;-71
2023/06/03 00:22:56;;;;;;;5.63;2.40;;;;;;;;;;510167;28;1339;-71
2023/06/03 00:23:15;;;;;;;5.45;2.38;;;;;;;;;;509746;28;1472;-71
2023/06/03 00:23:31;;;;;;;6.97;2.72;;;;;;;;;;510089;28;1105;-71
2023/06/03 00:23:48;;;;;;;7.50;2.70;;;;;;;;;;511909;28;1376;-71
2023/06/03 00:24:03;;;;;;;6.43;2.42;;;;;;;;;;513191;28;1393;-71
2023/06/03 00:24:23;;;;;;;5.67;2.50;;;;;;;;;;515514;28;950;-71
2023/06/03 00:24:39;;;;;;;5.70;2.67;;;;;;;;;;515044;28;1349;-71
2023/06/03 00:24:55;;;;;;;5.97;2.50;;;;;;;;;;511814;28;1335;-71
2023/06/03 00:25:11;;;;;;;6.67;2.47;;;;;;;;;;511559;28;1061;-71
2023/06/03 00:25:27;;;;;;;8.20;2.88;;;;;;;;;;510855;28;1057;-71
2023/06/03 00:25:45;;;;;;;8.13;2.90;;;;;;;;;;512243;28;998;-71
2023/06/03 00:26:01;;;;;;;6.32;2.60;;;;;;;;;;512715;28;1517;-71
2023/06/03 00:26:17;;;;;;;6.85;2.70;;;;;;;;;;510392;28;1410;-71
2023/06/03 00:26:32;;;;;;;7.03;2.73;;;;;;;;;;510160;28;1342;-71
2023/06/03 00:26:52;;;;;;;5.78;2.53;;;;;;;;;;512041;28;1003;-71
2023/06/03 00:27:07;;;;;;;6.47;2.50;;;;;;;;;;513500;28;1258;-71
2023/06/03 00:27:23;;;;;;;6.73;2.73;;;;;;;;;;513382;28;1124;-71
2023/06/03 00:27:39;;;;;;;7.40;2.80;;;;;;;;;;513129;28;1223;-71
2023/06/03 00:27:57;;;;;;;7.65;2.67;;;;;;;;;;514016;28;957;-71
2023/06/03 00:28:13;;;;;;;7.80;2.60;;;;;;;;;;512403;28;1486;-70
2023/06/03 00:28:28;;;;;;;5.35;2.30;;;;;;;;;;514609;28;1157;-71
2023/06/03 00:28:44;;;;;;;5.17;2.40;;;;;;;;;;512457;28;1240;-71
2023/06/03 00:29:00;;;;;;;5.70;2.55;;;;;;;;;;511680;28;1414;-71
2023/06/03 00:29:18;;;;;;;5.23;2.40;;;;;;;;;;510191;28;1338;-72
2023/06/03 00:29:34;;;;;;;5.18;2.38;;;;;;;;;;509772;28;1520;-72
2023/06/03 00:29:50;;;;;;;5.10;2.30;;;;;;;;;;508488;28;1297;-71
2023/06/03 00:30:07;;;;;;;5.13;2.10;;;;;;;;;;510297;28;1458;-71
2023/06/03 00:30:22;;;;;;;6.32;2.38;;;;;;;;;;510215;28;981;-71
2023/06/03 00:30:38;;;;;;;7.43;2.65;;;;;;;;;;510022;28;1540;-71
2023/06/03 00:30:54;;;;;;;9.15;2.88;;;;;;;;;;513193;28;1235;-72
2023/06/03 00:31:10;;;;;;;7.05;2.80;;;;;;;;;;512512;28;952;-72
2023/06/03 00:31:26;;;;;;;4.95;2.47;;;;;;;;;;511972;28;1717;-71
2023/06/03 00:31:41;;;;;;;5.00;2.38;;;;;;;;;;512875;28;1377;-71
2023/06/03 00:31:57;;;;;;;6.33;2.50;;;;;;;;;;511005;28;1480;-70
2023/06/03 00:32:16;;;;;;;6.75;2.50;;;;;;;;;;512810;28;1205;-71
2023/06/03 00:32:31;;;;;;;8.25;2.58;;;;;;;;;;513310;28;1357;-71
2023/06/03 00:32:47;;;;;;;8.27;2.63;;;;;;;;;;513509;28;1010;-71
2023/06/03 00:33:04;;;;;;;8.23;2.58;;;;;;;;;;511435;28;1401;-71
2023/06/03 00:33:19;;;;;;;5.65;2.38;;;;;;;;;;510181;28;1390;-71
2023/06/03 00:33:35;;;;;;;6.45;2.35;;;;;;;;;;509584;28;1384;-71
2023/06/03 00:33:51;;;;;;;6.60;2.50;;;;;;;;;;509448;28;1449;-72
2023/06/03 00:34:07;;;;;;;5.30;2.40;;;;;;;;;;509775;28;1234;-70
2023/06/03 00:34:22;;;;;;;5.27;2.50;;;;;;;;;;510811;28;1105;-71
2023/06/03 00:34:37;;;;;;;4.93;2.50;;;;;;;;;;510159;28;1156;-71
2023/06/03 00:34:53;;;;;;;6.30;2.50;;;;;;;;;;509705;28;1030;-71
2023/06/03 00:35:08;;;;;;;6.47;2.60;;;;;;;;;;510110;28;1416;-71
2023/06/03 00:35:24;;;;;;;5.43;2.50;;;;;;;;;;511415;28;1362;-71
2023/06/03 00:35:43;;;;;;;6.47;2.63;;;;;;;;;;510906;28;1469;-71
2023/06/03 00:35:59;;;;;;;8.32;2.90;;;;;;;;;;512947;28;1412;-71
2023/06/03 00:36:14;;;;;;;7.50;2.73;;;;;;;;;;510546;28;1363;-70
2023/06/03 00:36:33;;;;;;;6.25;2.65;;;;;;;;;;508709;28;1288;-70
2023/06/03 00:36:48;;;;;;;7.72;2.60;;;;;;;;;;508703;28;1134;-71
2023/06/03 00:37:04;;;;;;;8.93;2.78;;;;;;;;;;509286;28;1494;-71
2023/06/03 00:37:19;;;;;;;7.80;2.90;;;;;;;;;;511502;28;1466;-71
2023/06/03 00:37:35;;;;;;;7.07;2.67;;;;;;;;;;511709;28;1486;-71
2023/06/03 00:37:50;;;;;;;6.50;2.42;;;;;;;;;;512101;28;1188;-71
2023/06/03 00:38:06;;;;;;;7.27;2.53;;;;;;;;;;512251;28;1346;-70
2023/06/03 00:38:22;;;;;;;7.60;2.70;;;;;;;;;;510237;28;1562;-71
2023/06/03 00:38:37;;;;;;;6.80;2.60;;;;;;;;;;510770;28;1484;-71
2023/06/03 00:38:53;;;;;;;7.53;2.73;;;;;;;;;;510498;28;1348;-72
2023/06/03 00:39:10;;;;;;;7.43;2.70;;;;;;;;;;509309;28;1289;-71
2023/06/03 00:39:25;;;;;;;6.97;2.47;;;;;;;;;;508418;28;1315;-71
2023/06/03 00:39:41;;;;;;;6.57;2.45;;;;;;;;;;512001;28;1351;-71
2023/06/03 00:39:56;;;;;;;6.18;2.50;;;;;;;;;;511698;28;940;-70
2023/06/03 00:40:12;;;;;;;7.87;2.60;;;;;;;;;;511291;28;1388;-71
2023/06/03 00:40:27;;;;;;;8.23;2.63;;;;;;;;;;513179;28;1118;-70
2023/06/03 00:40:43;;;;;;;6.77;2.80;;;;;;;;;;512871;28;1255;-71
2023/06/03 00:40:59;;;;;;;6.38;2.83;;;;;;;;;;512748;28;1339;-72
2023/06/03 00:41:14;;;;;;;5.83;2.50;;;;;;;;;;512887;28;2024;-70
2023/06/03 00:41:30;;;;;;;7.95;2.50;;;;;;;;;;514819;28;1130;-72
2023/06/03 00:41:45;;;;;;;8.18;2.70;;;;;;;;;;513059;28;1737;-71
2023/06/03 00:42:01;;;;;;;7.07;2.70;;;;;;;;;;510416;28;1370;-71
2023/06/03 00:42:17;;;;;;;8.20;2.70;;;;;;;;;;508792;28;1167;-71
2023/06/03 00:42:32;;;;;;;8.32;2.67;;;;;;;;;;511363;28;1202;-72
2023/06/03 00:42:48;;;;;;;6.50;2.50;;;;;;;;;;512957;28;1439;-72
2023/06/03 00:43:03;;;;;;;7.53;2.47;;;;;;;;;;511679;28;1125;-72
2023/06/03 00:43:19;;;;;;;8.67;2.70;;;;;;;;;;510271;28;1287;-72
2023/06/03 00:43:34;;;;;;;6.57;2.50;;;;;;;;;;508918;28;1398;-72
2023/06/03 00:43:50;;;;;;;5.77;2.50;;;;;;;;;;506440;28;1228;-72
2023/06/03 00:44:06;;;;;;;5.72;2.53;;;;;;;;;;506761;28;1288;-71
2023/06/03 00:44:21;;;;;;;5.25;2.47;;;;;;;;;;508644;28;1252;-71
2023/06/03 00:44:37;;;;;;;6.93;2.60;;;;;;;;;;508637;28;968;-71
2023/06/03 00:44:52;;;;;;;7.05;2.63;;;;;;;;;;511590;28;1263;-71
2023/06/03 00:45:09;;;;;;;5.67;2.60;;;;;;;;;;512943;28;1240;-72
2023/06/03 00:45:24;;;;;;;5.30;2.60;;;;;;;;;;513402;28;1439;-71
2023/06/03 00:45:40;;;;;;;5.15;2.50;;;;;;;;;;513503;28;1374;-70
2023/06/03 00:45:56;;;;;;;7.30;2.55;;;;;;;;;;512819;28;1365;-71
2023/06/03 00:46:13;;;;;;;8.73;2.60;;;;;;;;;;510502;28;1254;-71
2023/06/03 00:46:33;;;;;;;7.40;2.67;;;;;;;;;;513038;28;1299;-72
2023/06/03 00:46:49;;;;;;;6.30;2.50;;;;;;;;;;512587;28;1294;-70
2023/06/03 00:47:05;;;;;;;6.18;2.60;;;;;;;;;;512295;28;1425;-72
2023/06/03 00:47:20;;;;;;;7.35;2.75;;;;;;;;;;513048;28;1268;-71
2023/06/03 00:47:37;;;;;;;7.07;2.60;;;;;;;;;;513516;28;1334;-71
2023/06/03 00:47:53;;;;;;;6.18;2.50;;;;;;;;;;513852;28;1110;-71
2023/06/03 00:48:11;;;;;;;6.28;2.60;;;;;;;;;;513067;28;1120;-71
2023/06/03 00:48:27;;;;;;;7.70;2.60;;;;;;;;;;511208;28;1430;-71
2023/06/03 00:48:43;;;;;;;7.10;2.50;;;;;;;;;;511172;28;1141;-72
2023/06/03 00:48:59;;;;;;;8.20;2.50;;;;;;;;;;512645;28;1421;-71
2023/06/03 00:49:15;;;;;;;8.55;2.58;;;;;;;;;;512623;28;1139;-72
2023/06/03 00:49:32;;;;;;;5.70;2.47;;;;;;;;;;512727;28;1089;-71
2023/06/03 00:49:47;;;;;;;4.95;2.33;;;;;;;;;;510513;28;1556;-71
2023/06/03 00:50:04;;;;;;;6.37;2.50;;;;;;;;;;511695;28;1081;-71
2023/06/03 00:50:20;;;;;;;9.27;2.78;;;;;;;;;;509411;28;1463;-71
2023/06/03 00:50:37;;;;;;;7.65;2.60;;;;;;;;;;509846;28;1331;-72
2023/06/03 00:50:52;;;;;;;5.55;2.45;;;;;;;;;;510525;28;1649;-72
2023/06/03 00:51:08;;;;;;;6.33;2.40;;;;;;;;;;510357;28;1358;-73
2023/06/03 00:51:24;;;;;;;6.40;2.50;;;;;;;;;;506767;28;1220;-71
2023/06/03 00:51:40;;;;;;;5.18;2.58;;;;;;;;;;508203;28;1334;-71
2023/06/03 00:51:56;;;;;;;6.55;2.70;;;;;;;;;;508617;28;1343;-71
2023/06/03 00:52:16;;;;;;;6.93;2.72;;;;;;;;;;510821;28;1357;-71
2023/06/03 00:52:32;;;;;;;7.03;2.80;;;;;;;;;;513064;28;1520;-71
2023/06/03 00:52:49;;;;;;;6.57;2.55;;;;;;;;;;512694;28;1406;-71
2023/06/03 00:53:05;;;;;;;4.55;2.22;;;;;;;;;;513284;28;1215;-71
2023/06/03 00:53:21;;;;;;;3.88;2.10;;;;;;;;;;513546;28;1699;-70
2023/06/03 00:53:37;;;;;;;5.38;2.20;;;;;;;;;;511196;28;1263;-71
2023/06/03 00:53:52;;;;;;;6.95;2.45;;;;;;;;;;512114;28;1287;-71
2023/06/03 00:54:08;;;;;;;7.20;2.60;;;;;;;;;;511159;28;1368;-71
2023/06/03 00:54:26;;;;;;;6.68;2.63;;;;;;;;;;508413;28;1493;-71
2023/06/03 00:54:42;;;;;;;7.20;2.70;;;;;;;;;;508236;28;1486;-71
2023/06/03 00:54:58;;;;;;;7.68;2.67;;;;;;;;;;509038;28;1420;-70
2023/06/03 00:55:17;;;;;;;7.30;2.57;;;;;;;;;;511144;28;1256;-72
2023/06/03 00:55:34;;;;;;;7.20;2.50;;;;;;;;;;513286;28;1291;-71
2023/06/03 00:55:50;;;;;;;8.15;2.63;;;;;;;;;;514952;28;1302;-72
2023/06/03 00:56:06;;;;;;;7.78;2.85;;;;;;;;;;513056;28;1335;-71
2023/06/03 00:56:22;;;;;;;7.80;2.80;;;;;;;;;;513087;28;1168;-71
2023/06/03 00:56:44;;;;;;;7.07;2.63;;;;;;;;;;512947;28;1029;-71
2023/06/03 00:57:02;;;;;;;6.28;2.72;;;;;;;;;;513153;28;1088;-72
2023/06/03 00:57:20;;;;;;;6.10;2.63;;;;;;;;;;514855;28;1471;-71
2023/06/03 00:57:39;;;;;;;5.72;2.58;;;;;;;;;;514054;28;1425;-71
2023/06/03 00:57:55;;;;;;;6.53;2.85;;;;;;;;;;514303;28;1378;-71
2023/06/03 00:58:11;;;;;;;7.22;2.78;;;;;;;;;;515145;28;1442;-71
2023/06/03 00:58:27;;;;;;;6.97;2.70;;;;;;;;;;515266;28;1413;-71
2023/06/03 00:58:43;;;;;;;6.15;2.67;;;;;;;;;;513329;28;1351;-72
2023/06/03 00:59:01;;;;;;;6.45;2.70;;;;;;;;;;512653;28;963;-71
2023/06/03 00:59:20;;;;;;;5.70;2.50;;;;;;;;;;511331;28;1480;-71
2023/06/03 00:59:36;;;;;;;6.72;2.50;;;;;;;;;;509859;28;1482;-71
2023/06/03 00:59:52;;;;;;;8.25;2.75;;;;;;;;;;509554;28;1260;-71
2023/06/03 01:00:08;;;;;;;6.43;2.63;;;;;;;;;;509053;28;1240;-72
2023/06/03 01:00:23;;;;;;;5.72;2.40;;;;;;;;;;512401;28;1338;-71
2023/06/03 01:00:39;;;;;;;7.57;2.67;;;;;;;;;;510637;28;1459;-71
2023/06/03 01:00:55;;;;;;;7.80;2.80;;;;;;;;;;512239;28;1466;-72
2023/06/03 01:01:12;;;;;;;6.68;2.72;;;;;;;;;;512596;28;1497;-72
2023/06/03 01:01:28;;;;;;;5.75;2.55;;;;;;;;;;510095;28;1981;-71
2023/06/03 01:01:44;;;;;;;4.63;2.35;;;;;;;;;;508497;28;1458;-71
2023/06/03 01:02:00;;;;;;;5.00;2.60;;;;;;;;;;512365;28;1449;-71
2023/06/03 01:02:17;;;;;;;5.32;2.63;;;;;;;;;;511848;28;1338;-71
2023/06/03 01:02:36;;;;;;;5.75;2.78;;;;;;;;;;510702;28;1573;-71
2023/06/03 01:02:52;;;;;;;7.20;2.60;;;;;;;;;;511604;28;1365;-71
2023/06/03 01:03:13;;;;;;;7.72;2.65;;;;;;;;;;512136;28;1271;-70
2023/06/03 01:03:28;;;;;;;8.25;2.97;;;;;;;;;;508683;28;1476;-71
2023/06/03 01:03:45;;;;;;;8.90;2.72;;;;;;;;;;510416;28;1408;-70
2023/06/03 01:04:01;;;;;;;6.55;2.47;;;;;;;;;;510612;28;1307;-71
2023/06/03 01:04:18;;;;;;;6.18;2.60;;;;;;;;;;510232;28;1320;-70
2023/06/03 01:04:34;;;;;;;7.32;2.80;;;;;;;;;;511708;28;1461;-71
2023/06/03 01:04:54;;;;;;;7.85;2.70;;;;;;;;;;510817;28;1223;-71
2023/06/03 01:05:13;;;;;;;7.57;2.70;;;;;;;;;;511183;28;1619;-71
2023/06/03 01:05:32;;;;;;;6.55;2.58;;;;;;;;;;510818;28;1367;-72
2023/06/03 01:06:32;;;;;;;5.85;2.53;;;;;;;;;;512871;28;1456;-71
2023/06/03 01:07:04;;;;;;;6.03;2.45;;;;;;;;;;514282;28;970;-71
2023/06/03 01:07:23;;;;;;;6.35;2.67;;;;;;;;;;516122;28;1528;-72
2023/06/03 01:07:53;;;;;;;6.72;2.60;;;;;;;;;;513797;28;1313;-71
2023/06/03 01:08:22;;;;;;;8.13;2.75;;;;;;;;;;513608;28;1487;-70
2023/06/03 01:09:06;;;;;;;5.60;2.58;;;;;;;;;;512004;28;1415;-71
2023/06/03 01:09:51;;;;;;;7.20;2.80;;;;;;;;;;512532;28;1303;-72
2023/06/03 01:10:21;;;;;;;5.97;2.33;;;;;;;;;;514142;28;1465;-72
2023/06/03 01:11:07;;;;;;;7.47;2.70;;;;;;;;;;516583;28;1186;-71
2023/06/03 01:11:41;;;;;;;8.07;2.60;;;;;;;;;;508861;28;1462;-71
2023/06/03 01:12:24;;;;;;;5.40;2.63;;;;;;;;;;513466;28;1344;-71
2023/06/03 01:12:54;;;;;;;7.28;2.70;;;;;;;;;;513651;28;1339;-72
2023/06/03 01:13:21;;;;;;;6.15;2.63;;;;;;;;;;513854;28;1073;-71
2023/06/03 01:14:10;;;;;;;5.88;2.42;;;;;;;;;;515892;28;1164;-70
2023/06/03 01:14:39;;;;;;;5.97;2.80;;;;;;;;;;514518;28;1468;-70
2023/06/03 01:14:59;;;;;;;5.05;2.60;;;;;;;;;;514968;28;1369;-70
2023/06/03 01:15:21;;;;;;;4.95;2.50;;;;;;;;;;514146;28;1290;-71
2023/06/03 01:15:41;;;;;;;5.47;2.67;;;;;;;;;;513149;28;1252;-71
2023/06/03 01:16:04;;;;;;;5.68;2.65;;;;;;;;;;511215;28;1586;-71
2023/06/03 01:16:21;;;;;;;5.85;2.35;;;;;;;;;;509878;28;1307;-71
2023/06/03 01:16:44;;;;;;;5.57;2.38;;;;;;;;;;510289;28;1510;-71
2023/06/03 01:17:09;;;;;;;6.50;2.70;;;;;;;;;;512371;28;991;-71
2023/06/03 01:17:28;;;;;;;5.55;2.58;;;;;;;;;;510818;28;1331;-71
2023/06/03 01:17:47;;;;;;;6.45;2.50;;;;;;;;;;511061;28;979;-71
2023/06/03 01:18:05;;;;;;;7.93;2.50;;;;;;;;;;510550;28;1239;-71
2023/06/03 01:18:21;;;;;;;7.78;2.55;;;;;;;;;;512253;28;1110;-71
2023/06/03 01:18:43;;;;;;;7.55;2.72;;;;;;;;;;512643;28;1362;-71
2023/06/03 01:19:01;;;;;;;8.07;2.95;;;;;;;;;;513643;28;1564;-71
2023/06/03 01:19:38;;;;;;;7.97;2.85;;;;;;;;;;512084;28;1398;-71
2023/06/03 01:19:56;;;;;;;6.97;2.60;;;;;;;;;;510636;28;1476;-72
2023/06/03 01:20:13;;;;;;;6.03;2.95;;;;;;;;;;512291;28;1390;-71
2023/06/03 01:20:29;;;;;;;6.15;2.85;;;;;;;;;;512264;28;1537;-71
2023/06/03 01:20:48;;;;;;;6.20;2.70;;;;;;;;;;510945;28;1348;-71
2023/06/03 01:21:03;;;;;;;6.38;2.80;;;;;;;;;;510049;28;1252;-71
2023/06/03 01:21:19;;;;;;;6.97;2.70;;;;;;;;;;510455;28;1931;-71
2023/06/03 01:21:38;;;;;;;7.97;2.78;;;;;;;;;;511098;28;1462;-71
2023/06/03 01:22:00;;;;;;;8.45;2.83;;;;;;;;;;510941;28;1053;-71
2023/06/03 01:22:20;;;;;;;7.85;2.65;;;;;;;;;;512913;28;1476;-71
2023/06/03 01:22:40;;;;;;;6.93;2.65;;;;;;;;;;510136;28;1189;-72
2023/06/03 01:23:23;;;;;;;6.18;2.78;;;;;;;;;;511731;28;1343;-71
2023/06/03 01:23:42;;;;;;;6.60;2.80;;;;;;;;;;513254;28;981;-71
2023/06/03 01:23:58;;;;;;;7.68;2.85;;;;;;;;;;513400;28;1504;-70
2023/06/03 01:24:18;;;;;;;6.30;2.70;;;;;;;;;;511025;28;1106;-71
2023/06/03 01:24:34;;;;;;;6.93;2.70;;;;;;;;;;510929;28;1525;-70
2023/06/03 01:24:50;;;;;;;7.10;2.70;;;;;;;;;;510496;28;1414;-71
2023/06/03 01:25:11;;;;;;;7.47;2.80;;;;;;;;;;508518;28;1173;-71
2023/06/03 01:25:26;;;;;;;8.20;2.75;;;;;;;;;;510765;28;1396;-71
2023/06/03 01:25:42;;;;;;;7.60;2.80;;;;;;;;;;511993;28;1547;-70
2023/06/03 01:26:00;;;;;;;6.57;2.80;;;;;;;;;;512141;28;1336;-71
2023/06/03 01:26:16;;;;;;;5.95;2.63;;;;;;;;;;511415;28;1060;-71
2023/06/03 01:26:34;;;;;;;7.10;2.67;;;;;;;;;;514284;28;1501;-70
2023/06/03 01:26:50;;;;;;;9.35;3.00;;;;;;;;;;514425;28;1213;-70
2023/06/03 01:27:09;;;;;;;7.57;2.95;;;;;;;;;;513052;28;1349;-71
2023/06/03 01:27:27;;;;;;;6.40;2.70;;;;;;;;;;511179;28;1548;-70
2023/06/03 01:27:45;;;;;;;6.00;2.60;;;;;;;;;;512806;28;1051;-70
2023/06/03 01:28:03;;;;;;;5.50;2.40;;;;;;;;;;513088;28;972;-71
2023/06/03 01:28:20;;;;;;;4.90;2.50;;;;;;;;;;510402;28;1170;-70
2023/06/03 01:28:35;;;;;;;5.38;2.55;;;;;;;;;;512630;28;1374;-71
2023/06/03 01:28:51;;;;;;;7.37;2.77;;;;;;;;;;512581;28;1338;-70
2023/06/03 01:29:06;;;;;;;6.85;2.72;;;;;;;;;;512880;28;1451;-71
2023/06/03 01:29:22;;;;;;;4.63;2.47;;;;;;;;;;513592;28;1359;-71
2023/06/03 01:29:40;;;;;;;4.38;2.40;;;;;;;;;;511765;28;1364;-71
2023/06/03 01:29:56;;;;;;;5.93;2.60;;;;;;;;;;511380;28;1267;-70
2023/06/03 01:30:14;;;;;;;7.73;2.93;;;;;;;;;;509475;28;1303;-71
2023/06/03 01:30:30;;;;;;;6.47;2.80;;;;;;;;;;507652;28;1648;-70
2023/06/03 01:30:47;;;;;;;6.23;2.60;;;;;;;;;;509521;28;1693;-70
2023/06/03 01:31:04;;;;;;;7.05;2.60;;;;;;;;;;508846;28;1409;-70
2023/06/03 01:31:23;;;;;;;5.85;2.53;;;;;;;;;;509672;28;1077;-71
2023/06/03 01:31:38;;;;;;;5.10;2.67;;;;;;;;;;511947;28;1505;-70
2023/06/03 01:31:58;;;;;;;4.82;2.60;;;;;;;;;;513457;28;1399;-70
2023/06/03 01:32:16;;;;;;;5.40;2.58;;;;;;;;;;514251;28;1327;-70
2023/06/03 01:32:31;;;;;;;6.00;2.70;;;;;;;;;;511932;28;1492;-70
2023/06/03 01:32:48;;;;;;;6.13;2.80;;;;;;;;;;511641;28;1108;-70
2023/06/03 01:33:04;;;;;;;6.50;2.72;;;;;;;;;;509151;28;1372;-70
2023/06/03 01:33:21;;;;;;;6.95;2.50;;;;;;;;;;509458;28;1272;-70
2023/06/03 01:33:38;;;;;;;6.57;2.60;;;;;;;;;;511139;28;1087;-71
2023/06/03 01:33:53;;;;;;;6.72;2.70;;;;;;;;;;513054;28;1344;-70
2023/06/03 01:34:09;;;;;;;6.70;2.70;;;;;;;;;;512443;28;1481;-70
2023/06/03 01:34:26;;;;;;;6.80;2.70;;;;;;;;;;513018;28;1140;-71
2023/06/03 01:34:43;;;;;;;5.65;2.55;;;;;;;;;;512796;28;1199;-70
2023/06/03 01:34:59;;;;;;;4.55;2.33;;;;;;;;;;510967;28;1332;-70
2023/06/03 01:35:17;;;;;;;5.10;2.45;;;;;;;;;;511409;28;1197;-70
2023/06/03 01:35:34;;;;;;;4.90;2.55;;;;;;;;;;510201;28;1254;-72
2023/06/03 01:35:52;;;;;;;5.13;2.60;;;;;;;;;;508986;28;1430;-70
2023/06/03 01:36:08;;;;;;;5.85;2.80;;;;;;;;;;510292;28;1293;-71
2023/06/03 01:36:24;;;;;;;7.07;2.65;;;;;;;;;;511567;28;1413;-70
2023/06/03 01:36:42;;;;;;;6.83;2.43;;;;;;;;;;511515;28;1310;-71
2023/06/03 01:36:58;;;;;;;5.25;2.58;;;;;;;;;;511916;28;1617;-71
2023/06/03 01:37:14;;;;;;;4.90;2.60;;;;;;;;;;511511;28;1113;-69
2023/06/03 01:37:40;;;;;;;5.57;2.60;;;;;;;;;;511335;28;1344;-71
2023/06/03 01:37:56;;;;;;;7.07;2.65;;;;;;;;;;513364;28;2094;-71
2023/06/03 01:38:12;;;;;;;7.60;2.70;;;;;;;;;;508731;28;1331;-70
2023/06/03 01:38:28;;;;;;;6.07;2.85;;;;;;;;;;510761;28;1300;-71
2023/06/03 01:38:44;;;;;;;6.10;2.80;;;;;;;;;;510525;28;1114;-71
2023/06/03 01:39:00;;;;;;;6.07;2.60;;;;;;;;;;510088;28;1301;-70
2023/06/03 01:39:16;;;;;;;5.60;2.50;;;;;;;;;;508881;28;1414;-71
2023/06/03 01:39:35;;;;;;;6.78;2.55;;;;;;;;;;510474;28;1296;-71
2023/06/03 01:39:51;;;;;;;7.15;2.80;;;;;;;;;;510633;28;1086;-71
2023/06/03 01:40:08;;;;;;;5.90;2.72;;;;;;;;;;512097;28;947;-72
2023/06/03 01:40:24;;;;;;;5.32;2.42;;;;;;;;;;513423;28;1384;-71
2023/06/03 01:40:40;;;;;;;5.03;2.45;;;;;;;;;;512726;28;985;-71
2023/06/03 01:40:56;;;;;;;4.97;2.55;;;;;;;;;;513986;28;1354;-71
2023/06/03 01:41:12;;;;;;;5.15;2.60;;;;;;;;;;515034;28;1325;-71
2023/06/03 01:41:28;;;;;;;5.72;2.55;;;;;;;;;;513860;28;1953;-71
2023/06/03 01:41:44;;;;;;;6.10;2.70;;;;;;;;;;511545;28;1255;-70
2023/06/03 01:42:00;;;;;;;5.50;2.72;;;;;;;;;;509727;28;1283;-71
2023/06/03 01:42:19;;;;;;;4.50;2.50;;;;;;;;;;510728;28;1061;-71
2023/06/03 01:42:35;;;;;;;4.60;2.42;;;;;;;;;;509533;28;1515;-70
2023/06/03 01:42:50;;;;;;;6.22;2.78;;;;;;;;;;511447;28;1208;-71
2023/06/03 01:43:06;;;;;;;6.78;2.92;;;;;;;;;;513183;28;1105;-71
2023/06/03 01:43:22;;;;;;;5.15;2.67;;;;;;;;;;512704;28;1215;-70
2023/06/03 01:43:37;;;;;;;5.70;2.90;;;;;;;;;;510349;28;1123;-71
2023/06/03 01:43:53;;;;;;;7.33;3.10;;;;;;;;;;510308;28;1231;-71
2023/06/03 01:44:08;;;;;;;7.65;3.10;;;;;;;;;;509728;28;1246;-69
2023/06/03 01:44:24;;;;;;;5.90;2.80;;;;;;;;;;510312;28;1364;-71
2023/06/03 01:44:40;;;;;;;5.47;2.70;;;;;;;;;;510048;28;1199;-72
2023/06/03 01:45:01;;;;;;;5.25;2.70;;;;;;;;;;510094;28;1149;-72
2023/06/03 01:45:17;;;;;;;6.70;2.60;;;;;;;;;;511653;28;1081;-71
2023/06/03 01:45:33;;;;;;;8.27;2.83;;;;;;;;;;513458;28;1377;-71
2023/06/03 01:45:49;;;;;;;7.70;2.90;;;;;;;;;;513950;28;1361;-70
2023/06/03 01:46:04;;;;;;;7.82;2.80;;;;;;;;;;513713;28;1212;-70
2023/06/03 01:46:21;;;;;;;7.50;2.70;;;;;;;;;;512177;28;1323;-71
2023/06/03 01:46:36;;;;;;;7.20;2.90;;;;;;;;;;510188;28;1410;-71
2023/06/03 01:46:54;;;;;;;7.07;2.90;;;;;;;;;;509810;28;1370;-70
2023/06/03 01:47:11;;;;;;;6.40;2.78;;;;;;;;;;508327;28;1213;-71
2023/06/03 01:47:27;;;;;;;5.25;2.70;;;;;;;;;;510225;28;1331;-71
2023/06/03 01:47:42;;;;;;;5.72;2.83;;;;;;;;;;507795;28;1519;-71
2023/06/03 01:47:59;;;;;;;7.40;2.90;;;;;;;;;;511836;28;1407;-70
2023/06/03 01:48:15;;;;;;;7.55;2.95;;;;;;;;;;510900;28;1551;-70
2023/06/03 01:48:30;;;;;;;6.18;2.80;;;;;;;;;;510504;28;1312;-71
2023/06/03 01:48:46;;;;;;;4.97;2.60;;;;;;;;;;510417;28;935;-71
2023/06/03 01:49:06;;;;;;;5.23;2.40;;;;;;;;;;510447;28;1254;-71